Terminal Aerodrome Forecast
Issued by NWS

Home | Current Version | Previous Version | Text Only | Print | Product List | Glossary Off
Versions: 1 2 3 4 5 6 7 8 9 10 11 12 13 14 15 16 17 18

000
FTUS43 KMPX 261501 AAB
TAFRWF
TAF AMD
KRWF 261501Z 2615/2712 01005KT 6SM -RA OVC006
     FM261700 01006KT P6SM OVC025
     FM262200 34007KT P6SM SCT050 SCT250
     FM270300 28003KT P6SM SCT250=

USA.gov is the U.S. government's official web portal to all federal, state and local government web resources and services.